McVille, ND (58254)

2:51 PM CST on December 05, 2016 (GMT -0600)
Cooperstown | | Change Station
Active Advisory: Winter Storm Warning

Elev 1424 ft 47.42 °N, 98.11 °W | Updated 16 minutes ago

Overcast
Overcast
27 °F
Feels Like 16 °F
N
13
Wind Variable Wind from NE

Today
High -- | Low -- °F
--% Chance of Precip.
Yesterday
High -- | Low -- °F
Precip. -- in
Pressure 29.55 in
Visibility 2.5 miles
Clouds Overcast 200 ft
Windchill 16 °F
Dew Point 27 °F
Humidity 100%
Rainfall 0.00 in
Snow Depth Not available.
8:05 AM 4:41 PM
Waxing Crescent, 34% visible
METAR KS32 052035Z AUTO 04011KT 2 1/2SM BR OVC002 M03/M03 A2955 RMK AO2
Pressure 29.55 in
Visibility 2.5 miles
Clouds Overcast 200 ft
Windchill 16 °F
Dew Point 27 °F
Humidity 100%
Rainfall 0.00 in
Snow Depth Not available.
8:05 AM 4:41 PM
Waxing Crescent, 34% visible
METAR KS32 052035Z AUTO 04011KT 2 1/2SM BR OVC002 M03/M03 A2955 RMK AO2

10-Day Weather Forecast

Almanac

Astronomy

Dec. 05, 2016 Rise Set
Actual Time
Civil Twilight
Nautical Twilight
Astronomical Twilight
Moon
Length of Visible Light
Length of Day
Tomorrow will be .
, % of the Moon is Illuminated

Today's Extremes

State Highs State Lows

Community

WunderPhotos

Upload Photos

1,955,861 photos uploaded!

WunderBlog® & News

Nearby

Air Quality

  Air Quality AQ Index Pollutant
Not available.

Snow Depth

Station Depth Elevation

Earthquake Activity

City Distance Mag. Time & Date
Minimum magnitude displayed is 2.5.

Coastal Water Temperatures

Place Temperature

Stations

Nearby Weather Stations

Station Location Temp. Windchill Dew Point Humidity Wind Precip. Elev Updated Type
                   

Watches & Warnings

Winter Storm Warning
Issued: 3:58 AM CST Dec. 5, 2016 – National Weather Service

... Winter Storm Warning in effect from 3 PM this afternoon to
6 PM CST Tuesday...

The National Weather Service in Grand Forks has issued a Winter
Storm Warning for heavy snow and blowing snow... which is in
effect from 3 PM this afternoon to 6 PM CST Tuesday.

* Timing... expect a wintry mix to develop around 3 PM and then
diminish around 6 PM Tuesday.

* Precipitation rates... the heaviest snowfall rates will occur
between 6 PM this evening and 6 am Tuesday.

* Snow accumulations... total snow accumulations of 6 to 10 inches
are expected.

* Winds / visibilities... winds gusting as high as 40 mph on
Tuesday will cause patchy blowing and drifting snow...
especially in open areas. Visibilities of one half mile or less
are possible.

* Impacts... plan on difficult driving conditions.

Precautionary/preparedness actions...

A Winter Storm Warning means significant amounts of snow are
expected. Strong winds are also possible. This will make travel
very hazardous or impossible. The latest Road conditions for the
state you are calling from can be obtained by calling 5 1 1.